Time;durP1;ratioP1;P1;durP2;ratioP2;P2;SDS_P1;SDS_P2;PMS_P1;PMS_P2;Temp;Humidity;BMP_temperature;BMP_pressure;BME280_temperature;BME280_humidity;BME280_pressure;Samples;Min_cycle;Max_cycle;Signal;HPM_P1;HPM_P2
2021/01/14 00:02:04;;;;;;;18.55;2.25;;;1.40;99.90;;;;;;5010273;28;20116;-82
2021/01/14 00:04:30;;;;;;;9.95;2.67;;;1.50;99.90;;;;;;5011508;28;20533;-81
2021/01/14 00:06:56;;;;;;;9.60;2.47;;;1.50;99.90;;;;;;5014443;28;20034;-81
2021/01/14 00:09:22;;;;;;;7.05;2.20;;;1.60;99.90;;;;;;5014288;28;20070;-81
2021/01/14 00:11:48;;;;;;;10.88;2.50;;;1.60;99.90;;;;;;5009305;28;20056;-81
2021/01/14 00:14:14;;;;;;;11.13;2.35;;;1.60;99.90;;;;;;5022002;28;20025;-81
2021/01/14 00:16:40;;;;;;;11.07;2.03;;;1.60;99.90;;;;;;5021160;28;20026;-81
2021/01/14 00:19:06;;;;;;;15.38;2.50;;;1.70;99.90;;;;;;5016929;28;20048;-81
2021/01/14 00:21:39;;;;;;;20.83;2.75;;;1.70;99.90;;;;;;5013302;28;20037;-81
2021/01/14 00:24:05;;;;;;;12.68;2.17;;;1.70;99.90;;;;;;5007586;28;20399;-81
2021/01/14 00:26:31;;;;;;;13.32;2.30;;;1.80;99.90;;;;;;5028241;28;20567;-81
2021/01/14 00:28:57;;;;;;;17.10;2.55;;;1.70;99.90;;;;;;5010659;28;20036;-81
2021/01/14 00:31:22;;;;;;;12.80;3.17;;;1.80;99.90;;;;;;5003185;28;20022;-81
2021/01/14 00:33:48;;;;;;;13.80;3.03;;;1.80;99.90;;;;;;5005077;28;20080;-81
2021/01/14 00:36:13;;;;;;;11.60;2.00;;;1.80;99.90;;;;;;5010004;28;20022;-81
2021/01/14 00:38:41;;;;;;;15.65;2.55;;;1.80;99.90;;;;;;5008413;28;20553;-81
2021/01/14 00:41:06;;;;;;;13.98;3.05;;;1.90;99.90;;;;;;4996653;28;20022;-81
2021/01/14 00:43:32;;;;;;;20.05;3.00;;;1.90;99.90;;;;;;5012014;28;20040;-81
2021/01/14 00:45:58;;;;;;;3.78;1.45;;;1.90;99.90;;;;;;5013320;28;20026;-81
2021/01/14 00:48:23;;;;;;;7.20;1.98;;;1.90;99.90;;;;;;5008875;28;20034;-81
2021/01/14 00:50:49;;;;;;;8.55;1.75;;;1.90;99.90;;;;;;4990877;28;20105;-81
2021/01/14 00:53:15;;;;;;;9.27;2.08;;;1.90;99.90;;;;;;4989899;28;20077;-81
2021/01/14 00:55:41;;;;;;;3.78;1.23;;;1.90;99.90;;;;;;5011751;28;20022;-81
2021/01/14 00:58:06;;;;;;;7.03;1.40;;;2.00;99.90;;;;;;4998246;28;20175;-81
2021/01/14 01:00:32;;;;;;;16.55;2.03;;;1.90;99.90;;;;;;5004449;28;20031;-81
2021/01/14 01:02:57;;;;;;;6.75;1.67;;;1.90;99.90;;;;;;5002300;28;20060;-81
2021/01/14 01:05:23;;;;;;;5.00;1.58;;;1.80;99.90;;;;;;4999583;28;20030;-81
2021/01/14 01:07:57;;;;;;;15.02;2.10;;;1.80;99.90;;;;;;5001246;28;20037;-81
2021/01/14 01:10:23;;;;;;;8.50;2.70;;;1.80;99.90;;;;;;4996969;28;20030;-81
2021/01/14 01:12:56;;;;;;;14.13;2.05;;;1.80;99.90;;;;;;4999742;28;20026;-81
2021/01/14 01:15:23;;;;;;;12.82;1.95;;;1.80;99.90;;;;;;5007503;28;20029;-81
2021/01/14 01:17:49;;;;;;;8.30;2.25;;;1.70;99.90;;;;;;5010075;28;20076;-81
2021/01/14 01:20:15;;;;;;;14.13;2.08;;;1.70;99.90;;;;;;4998300;28;20048;-81
2021/01/14 01:22:40;;;;;;;8.57;1.95;;;1.70;99.90;;;;;;4997965;28;20121;-81
2021/01/14 01:25:06;;;;;;;11.57;2.88;;;1.70;99.90;;;;;;5008610;28;20034;-81
2021/01/14 01:27:32;;;;;;;9.02;2.45;;;1.70;99.90;;;;;;5006386;28;20525;-81
2021/01/14 01:29:58;;;;;;;7.65;1.92;;;1.70;99.90;;;;;;5005654;28;20034;-81
2021/01/14 01:32:23;;;;;;;7.63;2.58;;;1.70;99.90;;;;;;5001544;28;20713;-81
2021/01/14 01:34:49;;;;;;;6.65;2.05;;;1.70;99.90;;;;;;5013653;28;20084;-81
2021/01/14 01:37:14;;;;;;;9.90;2.13;;;1.70;99.90;;;;;;5002683;28;20041;-81
2021/01/14 01:39:40;;;;;;;8.88;2.20;;;1.70;99.90;;;;;;5022251;28;20045;-81
2021/01/14 01:42:06;;;;;;;6.45;1.90;;;1.70;99.90;;;;;;5015939;28;20025;-81
2021/01/14 01:44:31;;;;;;;5.30;2.20;;;1.60;99.90;;;;;;5002195;28;20412;-81
2021/01/14 01:47:05;;;;;;;9.40;2.17;;;1.60;99.90;;;;;;5008733;28;20117;-82
2021/01/14 01:49:34;;;;;;;5.55;1.40;;;1.60;99.90;;;;;;5000191;28;20054;-81
2021/01/14 01:52:02;;;;;;;5.80;2.08;;;1.60;99.90;;;;;;4999036;28;20026;-81
2021/01/14 01:54:28;;;;;;;9.07;1.60;;;1.60;99.90;;;;;;5003701;28;20097;-81
2021/01/14 01:56:54;;;;;;;5.95;2.15;;;1.70;99.90;;;;;;5006098;28;20113;-81
2021/01/14 01:59:21;;;;;;;8.30;2.30;;;1.60;99.90;;;;;;5010139;28;20232;-81
2021/01/14 02:01:47;;;;;;;8.88;2.47;;;1.60;99.90;;;;;;5007835;28;20121;-81
2021/01/14 02:04:12;;;;;;;9.55;2.38;;;1.60;99.90;;;;;;5003007;28;20161;-81
2021/01/14 02:07:05;;;;;;;8.98;2.53;;;1.60;99.90;;;;;;5004731;28;20030;-81
2021/01/14 02:09:36;;;;;;;12.02;2.42;;;1.60;99.90;;;;;;5000133;28;20034;-81
2021/01/14 02:12:05;;;;;;;6.13;1.45;;;1.60;99.90;;;;;;5004475;28;20024;-81
2021/01/14 02:14:34;;;;;;;15.32;2.05;;;1.60;99.90;;;;;;5009618;28;20455;-82
2021/01/14 02:17:00;;;;;;;8.63;2.90;;;1.60;99.90;;;;;;5004818;28;20023;-81
2021/01/14 02:19:32;;;;;;;23.67;4.53;;;1.60;99.90;;;;;;4996926;28;20121;-81
2021/01/14 02:22:06;;;;;;;10.00;2.92;;;1.60;99.90;;;;;;5000462;28;20122;-81
2021/01/14 02:25:19;;;;;;;16.60;2.42;;;1.70;99.90;;;;;;5000463;28;20148;-81
2021/01/14 02:27:46;;;;;;;6.30;2.17;;;1.70;99.90;;;;;;4926700;29;20049;-81
2021/01/14 02:30:13;;;;;;;7.90;2.60;;;1.70;99.90;;;;;;4932267;29;20131;-81
2021/01/14 02:32:42;;;;;;;6.10;2.25;;;1.70;99.90;;;;;;4925220;29;20033;-81
2021/01/14 02:35:08;;;;;;;7.07;2.55;;;1.70;99.90;;;;;;4926553;29;20432;-80
2021/01/14 02:37:34;;;;;;;6.68;2.17;;;1.70;99.90;;;;;;4934986;29;20542;-81
2021/01/14 02:39:59;;;;;;;5.75;2.45;;;1.80;99.90;;;;;;4950000;28;20047;-81
2021/01/14 02:42:25;;;;;;;29.30;3.63;;;1.80;99.90;;;;;;4921915;29;20041;-81
2021/01/14 02:44:50;;;;;;;10.85;3.17;;;1.70;99.90;;;;;;4941597;28;20043;-81
2021/01/14 02:47:17;;;;;;;8.23;2.65;;;1.80;99.90;;;;;;4942488;28;20027;-81
2021/01/14 02:49:54;;;;;;;11.95;2.97;;;1.70;99.90;;;;;;4932100;29;20063;-81
2021/01/14 02:52:21;;;;;;;11.60;3.30;;;1.70;99.90;;;;;;4927425;29;20027;-81
2021/01/14 02:54:47;;;;;;;9.68;3.08;;;1.80;99.90;;;;;;4947615;29;20027;-81
2021/01/14 02:57:15;;;;;;;8.25;2.90;;;1.80;99.90;;;;;;4927469;29;20032;-81
2021/01/14 02:59:41;;;;;;;12.05;3.53;;;1.80;99.90;;;;;;4924286;29;20035;-81
2021/01/14 03:02:06;;;;;;;12.20;3.05;;;1.80;99.90;;;;;;4932037;28;20497;-81
2021/01/14 03:04:35;;;;;;;10.98;3.30;;;1.80;99.90;;;;;;4995836;28;20121;-81
2021/01/14 03:07:00;;;;;;;17.10;3.90;;;1.90;99.90;;;;;;4997976;28;20030;-81
2021/01/14 03:09:26;;;;;;;17.92;3.78;;;1.90;99.90;;;;;;5003091;28;20041;-81
2021/01/14 03:11:52;;;;;;;12.60;3.78;;;1.90;99.90;;;;;;5000115;28;20014;-81
2021/01/14 03:14:17;;;;;;;18.33;3.08;;;1.90;99.90;;;;;;5005380;28;20127;-81
2021/01/14 03:16:43;;;;;;;10.82;3.92;;;2.00;99.90;;;;;;5010750;28;20498;-81
2021/01/14 03:19:08;;;;;;;14.77;4.07;;;2.00;99.90;;;;;;4996415;28;20037;-81
2021/01/14 03:21:34;;;;;;;12.43;3.60;;;2.00;99.90;;;;;;4993772;28;20542;-81
2021/01/14 03:23:59;;;;;;;18.45;3.97;;;2.00;99.90;;;;;;4990470;28;20472;-81
2021/01/14 03:26:25;;;;;;;12.20;3.90;;;2.00;99.90;;;;;;5011938;28;20078;-81
2021/01/14 03:28:51;;;;;;;13.13;4.63;;;2.00;99.90;;;;;;4999045;28;20057;-81
2021/01/14 03:31:18;;;;;;;17.13;4.45;;;2.00;99.90;;;;;;5010028;28;20026;-81
2021/01/14 03:33:45;;;;;;;12.90;3.47;;;2.00;99.90;;;;;;4981736;28;20550;-81
2021/01/14 03:36:15;;;;;;;13.63;3.58;;;2.00;99.90;;;;;;4975982;28;20022;-81
2021/01/14 03:38:40;;;;;;;11.00;4.07;;;2.10;99.90;;;;;;4985254;28;20805;-81
2021/01/14 03:41:19;;;;;;;13.63;4.72;;;2.10;99.90;;;;;;4992083;28;20026;-81
2021/01/14 03:43:46;;;;;;;19.50;4.55;;;2.10;99.90;;;;;;4989851;28;20150;-81
2021/01/14 03:46:14;;;;;;;19.88;3.58;;;2.10;99.90;;;;;;4984517;28;20023;-81
2021/01/14 03:48:44;;;;;;;17.90;4.93;;;2.10;99.90;;;;;;4984155;28;20030;-81
2021/01/14 03:51:28;;;;;;;19.92;4.55;;;2.10;99.90;;;;;;5001524;28;20066;-81
2021/01/14 03:53:54;;;;;;;23.48;5.40;;;2.10;99.90;;;;;;4974757;28;20113;-81
2021/01/14 03:56:20;;;;;;;17.65;5.53;;;2.10;99.90;;;;;;4998131;28;20038;-81
2021/01/14 03:58:45;;;;;;;15.32;4.10;;;2.10;99.90;;;;;;4986991;28;20038;-81
2021/01/14 04:01:11;;;;;;;12.73;4.38;;;2.10;99.90;;;;;;4980182;28;20037;-81
2021/01/14 04:03:40;;;;;;;14.00;5.00;;;2.10;99.90;;;;;;4983612;28;20483;-81
2021/01/14 04:06:07;;;;;;;15.10;4.57;;;2.10;99.90;;;;;;4997365;28;20018;-81
2021/01/14 04:08:32;;;;;;;9.55;3.80;;;2.10;99.90;;;;;;4986912;28;20103;-81
2021/01/14 04:10:58;;;;;;;24.33;5.78;;;2.10;99.90;;;;;;5002232;28;20526;-81
2021/01/14 04:13:23;;;;;;;10.20;4.63;;;2.10;99.90;;;;;;4996677;28;20394;-81
2021/01/14 04:15:49;;;;;;;22.80;6.78;;;2.10;99.90;;;;;;4993152;28;20026;-81
2021/01/14 04:18:14;;;;;;;21.02;5.93;;;2.10;99.90;;;;;;4990245;28;20149;-81
2021/01/14 04:20:40;;;;;;;16.05;5.45;;;2.10;99.90;;;;;;4992602;28;20386;-81
2021/01/14 04:23:05;;;;;;;21.35;5.15;;;2.10;99.90;;;;;;4991350;28;20033;-81
2021/01/14 04:25:31;;;;;;;12.40;5.50;;;2.10;99.90;;;;;;4986936;28;20045;-81
2021/01/14 04:27:59;;;;;;;13.88;6.03;;;2.10;99.90;;;;;;5008101;28;20056;-80
2021/01/14 04:30:24;;;;;;;16.30;4.80;;;2.10;99.90;;;;;;5001805;28;20026;-80
2021/01/14 04:32:57;;;;;;;14.77;5.63;;;2.10;99.90;;;;;;5003233;28;20045;-80
2021/01/14 04:35:24;;;;;;;21.02;5.55;;;2.10;99.90;;;;;;4990972;28;20026;-81
2021/01/14 04:37:50;;;;;;;11.70;5.55;;;2.10;99.90;;;;;;4998493;28;20033;-81
2021/01/14 04:40:16;;;;;;;23.67;6.88;;;2.10;99.90;;;;;;4997424;28;20377;-81
2021/01/14 04:42:47;;;;;;;23.75;6.25;;;2.10;99.90;;;;;;5009177;28;20055;-81
2021/01/14 04:45:14;;;;;;;15.07;5.43;;;2.10;99.90;;;;;;5008535;28;20129;-81
2021/01/14 04:47:45;;;;;;;12.43;5.65;;;2.10;99.90;;;;;;5002933;28;20471;-81
2021/01/14 04:50:13;;;;;;;17.17;4.88;;;2.10;99.90;;;;;;4998588;28;20091;-81
2021/01/14 04:52:42;;;;;;;14.52;5.55;;;2.10;99.90;;;;;;4991750;28;20030;-81
2021/01/14 04:55:15;;;;;;;18.02;7.82;;;2.10;99.90;;;;;;4990651;28;20033;-81
2021/01/14 04:57:45;;;;;;;21.13;6.60;;;2.10;99.90;;;;;;5001576;28;20048;-81
2021/01/14 05:00:14;;;;;;;12.20;4.10;;;2.20;99.90;;;;;;5003914;28;20050;-81
2021/01/14 05:03:02;;;;;;;12.15;3.97;;;2.20;99.90;;;;;;4996596;28;20395;-81
2021/01/14 05:05:31;;;;;;;29.55;6.70;;;2.10;99.90;;;;;;4999422;28;20026;-81
2021/01/14 05:08:07;;;;;;;20.88;7.15;;;2.20;99.90;;;;;;4995807;28;20026;-81
2021/01/14 05:10:35;;;;;;;20.35;7.00;;;2.20;99.90;;;;;;4990797;28;20031;-81
2021/01/14 05:13:02;;;;;;;14.57;6.18;;;2.20;99.90;;;;;;5005443;28;20026;-81
2021/01/14 05:15:28;;;;;;;22.40;6.22;;;2.20;99.90;;;;;;5007959;28;20021;-81
2021/01/14 05:17:59;;;;;;;15.38;6.25;;;2.20;99.90;;;;;;4997629;28;20033;-82
2021/01/14 05:20:26;;;;;;;22.87;6.90;;;2.20;99.90;;;;;;4991717;28;20446;-81
2021/01/14 05:23:02;;;;;;;22.83;7.05;;;2.20;99.90;;;;;;4997130;28;20026;-81
2021/01/14 05:25:29;;;;;;;17.63;7.20;;;2.10;99.90;;;;;;4989782;28;20022;-81
2021/01/14 05:27:55;;;;;;;14.88;4.85;;;2.10;99.90;;;;;;4992434;28;20415;-82
2021/01/14 05:30:24;;;;;;;21.60;6.03;;;2.10;99.90;;;;;;4992944;28;20045;-81
2021/01/14 05:32:49;;;;;;;33.10;7.60;;;2.10;99.90;;;;;;4988190;28;20046;-81
2021/01/14 05:35:27;;;;;;;14.68;6.78;;;2.10;99.90;;;;;;4977481;28;20023;-81
2021/01/14 05:38:00;;;;;;;26.70;6.30;;;2.10;99.90;;;;;;4979861;28;20026;-81
2021/01/14 05:40:30;;;;;;;29.23;7.72;;;2.00;99.90;;;;;;4988995;28;20089;-81
2021/01/14 05:43:14;;;;;;;25.05;9.30;;;2.00;99.90;;;;;;4979692;28;20045;-81
2021/01/14 05:45:40;;;;;;;23.45;7.05;;;2.00;99.90;;;;;;4998574;28;20391;-81
2021/01/14 05:48:09;;;;;;;22.95;7.53;;;2.00;99.90;;;;;;4991171;28;20041;-81
2021/01/14 05:50:45;;;;;;;16.17;6.82;;;2.10;99.90;;;;;;4986046;28;20022;-81
2021/01/14 05:53:18;;;;;;;17.98;7.68;;;2.10;99.90;;;;;;4985586;28;20114;-81
2021/01/14 05:55:45;;;;;;;27.17;9.00;;;2.10;99.90;;;;;;4982565;28;20050;-80
2021/01/14 05:58:19;;;;;;;18.88;7.18;;;2.10;99.90;;;;;;4995775;28;20042;-80
2021/01/14 06:00:47;;;;;;;22.70;8.82;;;2.20;99.90;;;;;;4999250;28;20037;-80
2021/01/14 06:03:29;;;;;;;19.77;7.00;;;2.10;99.90;;;;;;4999349;28;20113;-80
2021/01/14 06:05:58;;;;;;;21.98;6.60;;;2.10;99.90;;;;;;4997216;28;20042;-80
2021/01/14 06:08:30;;;;;;;18.02;7.45;;;2.10;99.90;;;;;;4997607;28;20026;-80
2021/01/14 06:10:56;;;;;;;24.67;6.93;;;2.10;99.90;;;;;;4994087;28;20048;-82
2021/01/14 06:13:40;;;;;;;17.80;6.03;;;2.20;99.90;;;;;;5005927;28;20030;-80
2021/01/14 06:16:06;;;;;;;23.58;9.25;;;2.20;99.90;;;;;;5006795;28;20057;-80
2021/01/14 06:18:32;;;;;;;25.23;8.55;;;2.10;99.90;;;;;;5008231;28;20111;-81
2021/01/14 06:20:58;;;;;;;27.92;8.52;;;2.20;99.90;;;;;;4995911;28;20714;-80
2021/01/14 06:23:24;;;;;;;19.92;8.73;;;2.10;99.90;;;;;;5011558;28;20033;-81
2021/01/14 06:25:54;;;;;;;16.13;7.78;;;2.10;99.90;;;;;;5009257;28;20036;-80
2021/01/14 06:28:22;;;;;;;20.98;7.55;;;2.10;99.90;;;;;;5016519;28;20520;-80
2021/01/14 06:31:01;;;;;;;25.33;7.97;;;2.10;99.90;;;;;;5006362;28;20038;-80
2021/01/14 06:33:28;;;;;;;19.20;6.70;;;2.10;99.90;;;;;;5006861;28;20139;-81
2021/01/14 06:36:12;;;;;;;16.73;7.15;;;2.10;99.90;;;;;;4980223;28;20042;-80
2021/01/14 06:38:48;;;;;;;24.40;9.63;;;2.00;99.90;;;;;;4981475;28;20081;-80
2021/01/14 06:41:21;;;;;;;23.42;8.05;;;2.00;99.90;;;;;;4966731;28;20041;-79
2021/01/14 06:43:51;;;;;;;24.63;7.75;;;2.00;99.90;;;;;;4982490;28;20030;-80
2021/01/14 06:46:21;;;;;;;19.73;7.80;;;2.10;99.90;;;;;;4968954;28;20499;-81
2021/01/14 06:49:08;;;;;;;25.95;8.65;;;2.10;99.90;;;;;;4979526;28;20035;-81
2021/01/14 06:51:45;;;;;;;24.52;8.98;;;2.10;99.90;;;;;;4980965;28;20432;-81
2021/01/14 06:54:11;;;;;;;21.33;8.20;;;2.10;99.90;;;;;;4979696;28;20117;-81
2021/01/14 06:56:56;;;;;;;30.67;8.70;;;2.10;99.90;;;;;;4969994;28;20035;-81
2021/01/14 06:59:25;;;;;;;20.75;8.82;;;2.00;99.90;;;;;;4984032;28;20066;-81
2021/01/14 07:01:58;;;;;;;19.80;9.20;;;2.10;99.90;;;;;;4984272;28;20126;-81
2021/01/14 07:04:51;;;;;;;26.88;8.70;;;2.20;99.90;;;;;;4963025;28;20026;-81
2021/01/14 07:07:30;;;;;;;21.30;7.75;;;2.10;99.90;;;;;;4991193;28;20041;-81
2021/01/14 07:10:08;;;;;;;20.38;6.78;;;2.10;99.90;;;;;;5002855;28;20032;-81
2021/01/14 07:12:41;;;;;;;25.02;8.80;;;2.10;99.90;;;;;;5002805;28;20041;-81
2021/01/14 07:15:10;;;;;;;23.40;8.13;;;2.00;99.90;;;;;;5004848;28;20033;-81
2021/01/14 07:17:39;;;;;;;19.20;8.18;;;2.00;99.90;;;;;;5005918;28;20508;-81
2021/01/14 07:20:25;;;;;;;27.40;9.07;;;2.00;99.90;;;;;;5000917;28;20195;-81
2021/01/14 07:23:01;;;;;;;27.05;8.45;;;2.00;99.90;;;;;;4995956;28;20033;-81
2021/01/14 07:25:28;;;;;;;29.92;8.85;;;2.00;99.90;;;;;;4999873;28;20403;-81
2021/01/14 07:27:54;;;;;;;27.52;9.38;;;2.00;99.90;;;;;;5001402;28;20046;-81
2021/01/14 07:30:20;;;;;;;23.65;8.15;;;1.90;99.90;;;;;;5002883;28;20044;-81
2021/01/14 07:32:58;;;;;;;32.67;8.93;;;2.00;99.90;;;;;;4966190;28;20836;-81
2021/01/14 07:35:37;;;;;;;16.92;6.43;;;2.00;99.90;;;;;;4954632;28;20043;-81
2021/01/14 07:38:05;;;;;;;32.13;9.57;;;2.00;99.90;;;;;;4970813;28;20057;-81
2021/01/14 07:40:32;;;;;;;28.65;8.45;;;2.00;99.90;;;;;;4971701;28;20282;-81
2021/01/14 07:42:58;;;;;;;28.40;9.55;;;2.00;99.90;;;;;;4962533;28;20042;-81
2021/01/14 07:45:24;;;;;;;20.25;8.10;;;2.00;99.90;;;;;;4953397;28;20027;-81
2021/01/14 07:47:50;;;;;;;22.35;7.90;;;1.90;99.90;;;;;;4958615;28;20047;-81
2021/01/14 07:50:27;;;;;;;21.73;8.25;;;2.00;99.90;;;;;;4971819;28;20081;-81
2021/01/14 07:53:14;;;;;;;26.02;9.02;;;1.90;99.90;;;;;;4975028;28;20035;-81
2021/01/14 07:55:39;;;;;;;23.83;8.38;;;1.90;99.90;;;;;;4973955;28;20435;-80
2021/01/14 07:58:20;;;;;;;29.95;9.07;;;1.90;99.90;;;;;;4955293;28;20030;-80
2021/01/14 08:01:07;;;;;;;22.60;7.78;;;1.90;99.90;;;;;;4958606;28;20049;-80
2021/01/14 08:03:37;;;;;;;24.52;8.40;;;1.90;99.90;;;;;;4979692;28;20050;-80
2021/01/14 08:06:30;;;;;;;40.17;8.77;;;1.90;99.90;;;;;;5016628;28;20019;-81
2021/01/14 08:09:06;;;;;;;23.45;8.30;;;1.90;99.90;;;;;;4998903;28;20189;-81
2021/01/14 08:11:50;;;;;;;17.55;7.50;;;2.00;99.90;;;;;;5002069;28;20030;-80
2021/01/14 08:14:17;;;;;;;14.98;7.03;;;2.00;99.90;;;;;;5004561;28;20584;-80
2021/01/14 08:16:51;;;;;;;22.45;8.00;;;1.90;99.90;;;;;;5002406;28;20075;-80
2021/01/14 08:19:29;;;;;;;26.42;8.23;;;2.00;99.90;;;;;;4993622;28;20085;-80
2021/01/14 08:21:57;;;;;;;22.25;8.65;;;2.00;99.90;;;;;;4993208;28;20032;-81
2021/01/14 08:24:38;;;;;;;19.88;7.00;;;2.00;99.90;;;;;;4993407;28;20351;-81
2021/01/14 08:27:22;;;;;;;25.88;8.48;;;2.10;99.90;;;;;;4999800;28;20042;-81
2021/01/14 08:29:54;;;;;;;21.58;8.00;;;2.10;99.90;;;;;;4997686;28;20049;-81
2021/01/14 08:32:43;;;;;;;20.50;6.93;;;2.10;99.90;;;;;;4994277;28;20075;-81
2021/01/14 08:35:31;;;;;;;18.38;7.93;;;2.10;99.90;;;;;;4982207;28;20052;-81
2021/01/14 08:38:01;;;;;;;24.50;7.80;;;2.10;99.90;;;;;;4997921;28;20414;-81
2021/01/14 08:40:34;;;;;;;22.35;6.82;;;2.20;99.90;;;;;;4974094;28;20060;-81
2021/01/14 08:43:08;;;;;;;17.00;7.13;;;2.10;99.90;;;;;;4967130;28;20515;-80
2021/01/14 08:45:38;;;;;;;27.75;7.93;;;2.20;99.90;;;;;;4983529;28;20117;-81
2021/01/14 08:48:05;;;;;;;20.50;8.30;;;2.20;99.90;;;;;;4980913;28;20411;-80
2021/01/14 08:50:33;;;;;;;19.27;7.22;;;2.20;99.90;;;;;;4994984;28;20113;-80
2021/01/14 08:53:02;;;;;;;18.98;7.32;;;2.20;99.90;;;;;;4983185;28;21358;-81
2021/01/14 08:55:28;;;;;;;25.48;7.57;;;2.20;99.90;;;;;;4993592;28;20033;-81
2021/01/14 08:57:56;;;;;;;31.35;6.55;;;2.20;99.90;;;;;;4987044;28;20406;-81
2021/01/14 09:00:23;;;;;;;17.35;7.95;;;2.20;99.90;;;;;;4994973;28;20114;-81
2021/01/14 09:02:48;;;;;;;25.20;8.90;;;2.30;99.90;;;;;;4992896;28;20033;-81
2021/01/14 09:05:15;;;;;;;15.73;6.05;;;2.30;99.90;;;;;;4993181;28;20427;-81
2021/01/14 09:07:40;;;;;;;19.20;9.15;;;2.20;99.90;;;;;;4996402;28;20041;-81
2021/01/14 09:10:10;;;;;;;17.65;8.00;;;2.20;99.90;;;;;;4995648;28;20034;-81
2021/01/14 09:12:37;;;;;;;18.45;8.15;;;2.20;99.90;;;;;;4996929;28;20075;-82
2021/01/14 09:15:04;;;;;;;19.77;7.88;;;2.30;99.90;;;;;;4998834;28;20077;-80
2021/01/14 09:17:33;;;;;;;34.05;8.68;;;2.40;99.90;;;;;;4993264;28;20036;-81
2021/01/14 09:19:58;;;;;;;21.67;7.80;;;2.40;99.90;;;;;;4995912;28;20517;-82
2021/01/14 09:22:28;;;;;;;19.75;7.68;;;2.40;99.90;;;;;;4991427;28;20045;-82
2021/01/14 09:24:54;;;;;;;25.23;8.13;;;2.40;99.90;;;;;;4993390;28;20037;-81
2021/01/14 09:27:28;;;;;;;30.83;8.50;;;2.50;99.90;;;;;;4995495;28;20113;-81
2021/01/14 09:29:55;;;;;;;18.95;8.13;;;2.50;99.90;;;;;;4995845;28;20141;-82
2021/01/14 09:32:21;;;;;;;19.50;7.10;;;2.50;99.90;;;;;;4998160;28;20045;-82
2021/01/14 09:34:47;;;;;;;24.35;9.20;;;2.50;99.90;;;;;;4995482;28;20029;-82
2021/01/14 09:37:20;;;;;;;18.23;8.93;;;2.50;99.90;;;;;;5002932;28;20033;-81
2021/01/14 09:39:46;;;;;;;22.10;8.40;;;2.60;99.90;;;;;;4994919;28;20060;-81
2021/01/14 09:42:17;;;;;;;20.33;7.30;;;2.70;99.90;;;;;;4999632;28;20022;-82
2021/01/14 09:44:45;;;;;;;24.98;8.43;;;2.70;99.90;;;;;;4996948;28;20046;-82
2021/01/14 09:47:12;;;;;;;15.48;7.93;;;2.70;99.90;;;;;;5000533;28;20037;-81
2021/01/14 09:49:41;;;;;;;27.58;10.07;;;2.80;99.90;;;;;;4995145;28;20037;-83
2021/01/14 09:52:06;;;;;;;26.00;9.00;;;2.80;99.90;;;;;;4993371;28;20038;-81
2021/01/14 09:54:36;;;;;;;26.77;7.97;;;2.70;99.90;;;;;;4997058;28;20033;-82
2021/01/14 09:57:04;;;;;;;35.03;8.10;;;2.60;99.90;;;;;;4999705;28;20053;-81
2021/01/14 09:59:43;;;;;;;22.65;7.38;;;2.60;99.90;;;;;;5003200;28;20099;-81
2021/01/14 10:02:24;;;;;;;19.58;6.03;;;2.60;99.90;;;;;;4998112;28;20034;-81
2021/01/14 10:04:56;;;;;;;19.00;8.25;;;2.50;99.90;;;;;;4991708;28;20019;-81
2021/01/14 10:07:24;;;;;;;15.75;6.75;;;2.50;99.90;;;;;;4992910;28;20030;-81
2021/01/14 10:09:50;;;;;;;23.65;8.20;;;2.50;99.90;;;;;;4996420;28;20038;-81
2021/01/14 10:12:16;;;;;;;19.95;6.60;;;2.50;99.90;;;;;;4997480;28;20120;-81
2021/01/14 10:14:41;;;;;;;20.90;8.68;;;2.50;99.90;;;;;;5000143;28;20109;-81
2021/01/14 10:17:11;;;;;;;27.75;8.52;;;2.50;99.90;;;;;;5017683;28;20044;-81
2021/01/14 10:19:40;;;;;;;28.52;8.48;;;2.50;99.90;;;;;;4997756;28;20372;-82
2021/01/14 10:22:06;;;;;;;29.55;6.95;;;2.60;99.90;;;;;;5009525;28;20030;-81
2021/01/14 10:24:33;;;;;;;20.67;8.18;;;2.70;99.90;;;;;;4998416;28;20038;-82
2021/01/14 10:27:21;;;;;;;26.63;6.85;;;2.70;99.90;;;;;;5000214;28;20065;-81
2021/01/14 10:29:48;;;;;;;19.77;7.53;;;2.90;99.90;;;;;;4999239;28;20037;-81
2021/01/14 10:32:15;;;;;;;15.68;6.88;;;2.80;99.90;;;;;;4996236;28;20042;-80
2021/01/14 10:34:49;;;;;;;27.88;7.03;;;2.70;99.90;;;;;;4998409;28;20041;-81
2021/01/14 10:37:30;;;;;;;33.90;7.05;;;2.60;99.90;;;;;;4995891;28;20029;-82
2021/01/14 10:39:59;;;;;;;28.25;8.93;;;2.60;99.90;;;;;;4992415;28;20132;-80
2021/01/14 10:42:27;;;;;;;44.17;9.50;;;2.60;99.90;;;;;;4995202;28;20204;-80
2021/01/14 10:44:58;;;;;;;28.13;7.65;;;2.60;99.90;;;;;;4997513;28;20094;-80
2021/01/14 10:47:24;;;;;;;25.65;8.63;;;2.60;99.90;;;;;;4993696;28;20164;-80
2021/01/14 10:49:49;;;;;;;24.70;8.32;;;2.60;99.90;;;;;;4995315;28;20061;-80
2021/01/14 10:52:15;;;;;;;16.85;7.43;;;2.60;99.90;;;;;;4993160;28;20069;-81
2021/01/14 10:54:41;;;;;;;28.05;9.00;;;2.60;99.90;;;;;;4996291;28;20041;-80
2021/01/14 10:57:08;;;;;;;20.08;7.28;;;2.60;99.90;;;;;;4998761;28;20125;-81
2021/01/14 10:59:34;;;;;;;28.55;7.93;;;2.70;99.90;;;;;;4998763;28;20079;-80
2021/01/14 11:02:04;;;;;;;19.45;6.43;;;2.70;99.90;;;;;;4997116;28;20044;-80
2021/01/14 11:04:30;;;;;;;25.60;7.13;;;2.70;99.90;;;;;;4995561;28;20098;-81
2021/01/14 11:06:56;;;;;;;20.98;8.25;;;2.60;99.90;;;;;;4994078;28;20103;-81
2021/01/14 11:09:22;;;;;;;23.10;8.43;;;2.60;99.90;;;;;;4994858;28;20038;-81
2021/01/14 11:11:48;;;;;;;22.20;7.30;;;2.60;99.90;;;;;;4995959;28;20033;-82
2021/01/14 11:14:18;;;;;;;30.00;8.43;;;2.60;99.90;;;;;;4995297;28;20450;-84
2021/01/14 11:16:43;;;;;;;35.13;8.73;;;2.60;99.90;;;;;;4998653;28;20034;-83
2021/01/14 11:19:10;;;;;;;17.92;7.35;;;2.60;99.90;;;;;;4995629;28;20468;-83
2021/01/14 11:21:37;;;;;;;28.45;9.13;;;2.60;99.90;;;;;;4997053;28;20047;-84
2021/01/14 11:24:04;;;;;;;16.23;7.90;;;2.60;99.90;;;;;;4996341;28;20026;-84
2021/01/14 11:26:29;;;;;;;15.52;7.47;;;2.70;99.90;;;;;;4994997;28;20046;-83
2021/01/14 11:28:55;;;;;;;26.48;8.27;;;2.60;99.90;;;;;;4984010;28;20129;-83
2021/01/14 11:31:23;;;;;;;20.02;6.95;;;2.60;99.90;;;;;;4982102;28;20413;-80
2021/01/14 11:33:49;;;;;;;27.63;8.30;;;2.70;99.90;;;;;;4977290;28;20544;-81
2021/01/14 11:36:20;;;;;;;18.67;7.97;;;2.80;99.90;;;;;;4971379;28;20542;-80
2021/01/14 11:38:47;;;;;;;;;;;2.80;99.90;;;;;;4974515;28;20041;-81
2021/01/14 11:41:16;;;;;;;15.60;6.70;;;2.80;99.90;;;;;;4976288;28;19924;-80
2021/01/14 11:43:42;;;;;;;23.38;9.68;;;2.70;99.90;;;;;;4999670;28;20032;-81
2021/01/14 11:46:08;;;;;;;29.30;8.48;;;2.70;99.90;;;;;;4978698;28;20029;-81
2021/01/14 11:48:33;;;;;;;16.85;6.28;;;2.90;99.90;;;;;;4979135;28;20061;-80
2021/01/14 11:50:59;;;;;;;21.90;8.27;;;2.90;99.90;;;;;;4958795;28;20122;-81
2021/01/14 11:53:25;;;;;;;27.90;9.18;;;2.90;99.90;;;;;;4955612;28;21028;-79
2021/01/14 11:55:51;;;;;;;22.92;8.90;;;3.00;99.90;;;;;;4938656;28;20043;-80
2021/01/14 11:58:17;;;;;;;22.70;7.53;;;3.10;99.90;;;;;;4947739;28;20400;-81
2021/01/14 12:00:44;;;;;;;36.53;9.20;;;3.00;99.90;;;;;;4962154;28;20061;-80
2021/01/14 12:03:09;;;;;;;18.35;8.75;;;3.00;99.90;;;;;;4959654;28;20045;-81
2021/01/14 12:05:35;;;;;;;18.08;6.03;;;3.00;99.90;;;;;;4955297;28;20460;-80
2021/01/14 12:08:01;;;;;;;22.00;7.50;;;2.90;99.90;;;;;;4937928;28;20031;-81
2021/01/14 12:10:27;;;;;;;30.65;8.68;;;2.90;99.90;;;;;;4961724;28;20475;-81
2021/01/14 12:12:52;;;;;;;23.17;8.75;;;3.00;99.90;;;;;;4960955;28;20137;-80
2021/01/14 12:15:18;;;;;;;23.15;8.52;;;3.10;99.90;;;;;;4960540;28;20089;-81
2021/01/14 12:17:43;;;;;;;24.60;8.35;;;3.20;99.90;;;;;;4961213;28;20042;-80
2021/01/14 12:20:09;;;;;;;30.25;7.93;;;3.20;99.90;;;;;;4939569;28;20138;-83
2021/01/14 12:22:38;;;;;;;18.80;7.05;;;3.20;99.90;;;;;;4983872;28;20045;-83
2021/01/14 12:25:07;;;;;;;21.27;7.05;;;3.20;99.90;;;;;;4974242;28;20026;-82
2021/01/14 12:27:32;;;;;;;40.92;8.60;;;3.20;99.90;;;;;;4987906;28;20049;-79
2021/01/14 12:29:58;;;;;;;23.75;7.60;;;3.30;99.90;;;;;;4998354;28;20037;-80
2021/01/14 12:32:23;;;;;;;25.30;9.60;;;3.20;99.90;;;;;;4993112;28;20061;-81
2021/01/14 12:34:49;;;;;;;23.67;6.72;;;3.20;99.90;;;;;;4992215;28;20046;-81
2021/01/14 12:37:14;;;;;;;28.05;8.30;;;3.20;99.90;;;;;;5007990;28;20038;-82
2021/01/14 12:39:42;;;;;;;22.98;7.70;;;3.10;99.90;;;;;;4992429;28;20052;-81
2021/01/14 12:42:11;;;;;;;20.30;8.40;;;3.10;99.90;;;;;;4998167;28;20030;-82
2021/01/14 12:44:37;;;;;;;28.42;8.63;;;3.10;99.90;;;;;;4998934;28;20108;-82
2021/01/14 12:47:03;;;;;;;20.20;7.30;;;3.10;99.90;;;;;;4992061;28;20037;-82
2021/01/14 12:49:29;;;;;;;15.55;7.00;;;3.00;99.90;;;;;;4993905;28;20104;-82
2021/01/14 12:51:54;;;;;;;20.45;7.70;;;3.00;99.90;;;;;;4992841;28;20565;-82
2021/01/14 12:54:20;;;;;;;36.20;9.35;;;3.00;99.90;;;;;;4993776;28;20108;-82
2021/01/14 12:56:46;;;;;;;25.25;7.85;;;3.00;99.90;;;;;;4993636;28;20051;-82
2021/01/14 12:59:11;;;;;;;29.90;8.32;;;3.00;99.90;;;;;;4993436;28;20337;-82